createdAt,value
2018-11-11T00:00:23.457Z,11.43
2018-11-11T00:03:27.587Z,11.48
2018-11-11T00:06:31.789Z,11.44
2018-11-11T00:09:35.903Z,11.44
2018-11-11T00:12:40.410Z,11.43
2018-11-11T00:15:44.543Z,11.43
2018-11-11T00:18:48.675Z,11.45
2018-11-11T00:21:52.977Z,11.43
2018-11-11T00:24:57.146Z,11.45
2018-11-11T00:28:01.302Z,11.44
2018-11-11T00:31:05.491Z,11.52
2018-11-11T00:34:09.638Z,11.57
2018-11-11T00:37:13.769Z,11.46
2018-11-11T00:40:17.923Z,11.49
2018-11-11T00:43:22.083Z,11.49
2018-11-11T00:46:26.216Z,11.37
2018-11-11T00:49:30.358Z,11.40
2018-11-11T00:52:34.507Z,11.47
2018-11-11T00:55:39.081Z,11.46
2018-11-11T00:58:43.214Z,11.49
2018-11-11T01:01:48.175Z,11.50
2018-11-11T01:04:52.317Z,11.54
2018-11-11T01:07:56.459Z,11.54
2018-11-11T01:11:00.587Z,11.51
2018-11-11T01:14:04.749Z,11.51
2018-11-11T01:17:09.525Z,11.51
2018-11-11T01:20:14.870Z,11.55
2018-11-11T01:23:19.006Z,11.43
2018-11-11T01:26:23.154Z,11.35
2018-11-11T01:29:27.323Z,11.30
2018-11-11T01:32:31.457Z,11.34
2018-11-11T01:35:35.571Z,11.33
2018-11-11T01:38:39.716Z,11.21
2018-11-11T01:41:43.847Z,11.18
2018-11-11T01:44:47.957Z,11.15
2018-11-11T01:47:52.078Z,11.19
2018-11-11T01:50:56.192Z,11.26
2018-11-11T01:54:00.326Z,11.21
2018-11-11T01:57:04.452Z,11.23
2018-11-11T02:00:13.088Z,11.20
2018-11-11T02:03:17.214Z,11.19
2018-11-11T02:06:21.336Z,11.17
2018-11-11T02:09:25.450Z,11.17
2018-11-11T02:12:29.602Z,11.20
2018-11-11T02:15:33.726Z,11.19
2018-11-11T02:18:37.859Z,11.22
2018-11-11T02:21:42.020Z,11.26
2018-11-11T02:24:46.118Z,11.30
2018-11-11T02:27:50.278Z,11.29
2018-11-11T02:30:54.500Z,11.30
2018-11-11T02:33:58.624Z,11.33
2018-11-11T02:37:02.754Z,11.37
2018-11-11T02:40:09.990Z,11.39
2018-11-11T02:43:14.130Z,11.48
2018-11-11T02:46:18.262Z,11.52
2018-11-11T02:49:22.391Z,11.50
2018-11-11T02:52:26.527Z,11.50
2018-11-11T02:55:30.641Z,11.56
2018-11-11T02:58:34.767Z,11.54
2018-11-11T03:01:38.911Z,11.53
2018-11-11T03:04:43.035Z,11.58
2018-11-11T03:07:47.150Z,11.59
2018-11-11T03:10:51.277Z,11.67
2018-11-11T03:13:55.967Z,11.66
2018-11-11T03:17:00.095Z,11.66
2018-11-11T03:20:04.510Z,11.65
2018-11-11T03:23:08.652Z,11.66
2018-11-11T03:26:12.819Z,11.60
2018-11-11T03:29:16.958Z,11.52
2018-11-11T03:32:21.109Z,11.46
2018-11-11T03:35:25.239Z,11.37
2018-11-11T03:38:29.379Z,11.39
2018-11-11T03:41:33.537Z,11.30
2018-11-11T03:44:37.670Z,11.31
2018-11-11T03:47:42.690Z,11.33
2018-11-11T03:50:46.826Z,11.29
2018-11-11T03:53:50.942Z,11.32
2018-11-11T03:56:55.066Z,11.33
2018-11-11T03:59:59.206Z,11.32
2018-11-11T04:03:03.350Z,11.28
2018-11-11T04:06:07.472Z,11.22
2018-11-11T04:09:12.626Z,11.09
2018-11-11T04:12:16.767Z,11.02
2018-11-11T04:15:21.072Z,11.00
2018-11-11T04:18:25.186Z,10.96
2018-11-11T04:21:29.409Z,10.89
2018-11-11T04:24:33.526Z,10.90
2018-11-11T04:27:37.668Z,10.94
2018-11-11T04:30:41.798Z,11.05
2018-11-11T04:33:45.978Z,11.10
2018-11-11T04:36:50.121Z,11.03
2018-11-11T04:39:54.274Z,11.00
2018-11-11T04:42:58.418Z,10.95
2018-11-11T04:46:02.642Z,10.95
2018-11-11T04:49:06.790Z,10.94
2018-11-11T04:52:11.019Z,10.89
2018-11-11T04:55:15.153Z,10.87
2018-11-11T04:58:19.331Z,10.88
2018-11-11T05:01:23.541Z,10.95
2018-11-11T05:04:27.624Z,10.90
2018-11-11T05:07:31.730Z,10.83
2018-11-11T05:10:35.876Z,10.83
2018-11-11T05:13:40.015Z,10.78
2018-11-11T05:16:44.154Z,10.76
2018-11-11T05:19:48.315Z,10.76
2018-11-11T05:22:52.462Z,10.85
2018-11-11T05:25:56.607Z,10.88
2018-11-11T05:29:00.755Z,10.91
2018-11-11T05:32:05.018Z,10.92
2018-11-11T05:35:10.136Z,10.92
2018-11-11T05:38:14.277Z,10.99
2018-11-11T05:41:18.426Z,10.96
2018-11-11T05:44:22.567Z,10.91
2018-11-11T05:47:26.703Z,10.90
2018-11-11T05:50:30.845Z,10.89
2018-11-11T05:53:34.997Z,10.93
2018-11-11T05:56:39.150Z,10.98
2018-11-11T05:59:43.290Z,10.93
2018-11-11T06:02:47.422Z,10.91
2018-11-11T06:05:51.583Z,10.93
2018-11-11T06:08:55.737Z,11.03
2018-11-11T06:11:59.889Z,10.99
2018-11-11T06:15:04.114Z,10.96
2018-11-11T06:18:08.265Z,10.95
2018-11-11T06:21:12.393Z,10.91
2018-11-11T06:24:16.577Z,10.97
2018-11-11T06:27:20.767Z,10.95
2018-11-11T06:30:24.867Z,11.02
2018-11-11T06:33:28.996Z,10.99
2018-11-11T06:36:33.122Z,11.01
2018-11-11T06:39:37.250Z,11.01
2018-11-11T06:42:41.719Z,11.01
2018-11-11T06:45:45.845Z,11.04
2018-11-11T06:48:49.963Z,11.08
2018-11-11T06:51:54.073Z,11.12
2018-11-11T06:54:58.199Z,11.18
2018-11-11T06:58:02.381Z,11.24
2018-11-11T07:01:06.739Z,11.27
2018-11-11T07:04:10.854Z,11.34
2018-11-11T07:07:14.970Z,11.32
2018-11-11T07:10:19.118Z,11.38
2018-11-11T07:13:23.315Z,11.45
2018-11-11T07:16:27.453Z,11.53
2018-11-11T07:19:31.584Z,11.66
2018-11-11T07:22:35.718Z,11.75
2018-11-11T07:25:39.862Z,11.86
2018-11-11T07:28:44.002Z,11.87
2018-11-11T07:31:48.134Z,11.84
2018-11-11T07:34:52.415Z,11.87
2018-11-11T07:37:56.581Z,11.90
2018-11-11T07:41:00.726Z,11.97
2018-11-11T07:44:04.988Z,11.95
2018-11-11T07:47:09.114Z,11.97
2018-11-11T07:50:13.294Z,11.97
2018-11-11T07:53:17.455Z,11.93
2018-11-11T07:56:21.605Z,11.90
2018-11-11T07:59:25.742Z,11.89
2018-11-11T08:02:29.886Z,11.98
2018-11-11T08:05:34.044Z,11.99
2018-11-11T08:08:38.179Z,12.00
2018-11-11T08:11:54.509Z,11.97
2018-11-11T08:14:58.655Z,11.92
2018-11-11T08:18:02.813Z,11.86
2018-11-11T08:21:06.976Z,11.84
2018-11-11T08:24:11.118Z,11.81
2018-11-11T08:27:15.262Z,11.75
2018-11-11T08:30:19.421Z,11.71
2018-11-11T08:33:23.553Z,11.80
2018-11-11T08:36:27.734Z,11.86
2018-11-11T08:39:31.880Z,11.89
2018-11-11T08:42:36.018Z,11.96
2018-11-11T08:45:40.166Z,11.98
2018-11-11T08:48:44.307Z,11.96
2018-11-11T08:51:48.434Z,11.90
2018-11-11T08:54:52.582Z,11.91
2018-11-11T08:57:56.747Z,12.07
2018-11-11T09:01:00.861Z,12.18
2018-11-11T09:04:05.292Z,12.43
2018-11-11T09:07:09.430Z,12.50
2018-11-11T09:10:13.682Z,12.64
2018-11-11T09:13:17.832Z,12.76
2018-11-11T09:16:22.023Z,12.87
2018-11-11T09:19:26.154Z,12.88
2018-11-11T09:22:30.297Z,12.94
2018-11-11T09:25:34.442Z,13.05
2018-11-11T09:28:38.587Z,13.20
2018-11-11T09:31:42.735Z,14.17
2018-11-11T09:34:46.907Z,16.08
2018-11-11T09:37:51.036Z,16.40
2018-11-11T09:40:55.142Z,15.60
2018-11-11T09:43:59.263Z,15.20
2018-11-11T09:47:03.394Z,14.83
2018-11-11T09:50:10.773Z,14.38
2018-11-11T09:53:14.898Z,14.21
2018-11-11T09:56:19.016Z,14.10
2018-11-11T09:59:23.151Z,14.37
2018-11-11T10:02:27.261Z,14.48
2018-11-11T10:07:40.466Z,14.40
2018-11-11T10:12:57.303Z,14.34
2018-11-11T10:16:14.235Z,14.37
2018-11-11T10:19:22.391Z,14.42
2018-11-11T10:22:34.593Z,14.87
2018-11-11T10:25:43.119Z,15.36
2018-11-11T10:30:00.286Z,15.39
2018-11-11T10:34:32.146Z,15.29
2018-11-11T10:37:47.130Z,15.32
2018-11-11T10:40:55.826Z,15.31
2018-11-11T10:44:03.234Z,15.06
2018-11-11T10:47:17.977Z,14.85
2018-11-11T10:50:27.390Z,14.72
2018-11-11T10:53:31.523Z,14.74
2018-11-11T10:56:35.684Z,14.78
2018-11-11T10:59:39.819Z,14.74
2018-11-11T11:02:49.234Z,14.68
2018-11-11T11:05:53.390Z,14.94
2018-11-11T11:09:02.782Z,15.62
2018-11-11T11:12:06.936Z,16.87
2018-11-11T11:15:11.314Z,18.39
2018-11-11T11:18:15.509Z,19.56
2018-11-11T11:21:19.692Z,21.10
2018-11-11T11:24:23.832Z,22.14
2018-11-11T11:27:28.092Z,22.09
2018-11-11T11:30:32.174Z,22.72
2018-11-11T11:33:36.306Z,22.91
2018-11-11T11:36:40.421Z,23.16
2018-11-11T11:39:44.542Z,24.89
2018-11-11T11:42:48.664Z,25.50
2018-11-11T11:45:52.793Z,24.76
2018-11-11T11:48:56.894Z,22.10
2018-11-11T11:52:01.043Z,20.77
2018-11-11T11:55:05.600Z,20.05
2018-11-11T11:58:17.842Z,18.90
2018-11-11T12:01:21.950Z,18.47
2018-11-11T12:04:26.171Z,17.87
2018-11-11T12:07:30.295Z,17.48
2018-11-11T12:10:34.415Z,17.16
2018-11-11T12:13:38.546Z,17.03
2018-11-11T12:16:42.736Z,16.85
2018-11-11T12:19:46.830Z,16.68
2018-11-11T12:22:50.937Z,16.53
2018-11-11T12:25:55.050Z,16.28
2018-11-11T12:28:59.181Z,16.14
2018-11-11T12:32:03.634Z,16.16
2018-11-11T12:35:08.408Z,16.22
2018-11-11T12:38:12.521Z,16.11
2018-11-11T12:41:16.661Z,16.21
2018-11-11T12:44:20.890Z,16.31
2018-11-11T12:47:25.044Z,16.51
2018-11-11T12:50:29.228Z,16.73
2018-11-11T12:53:33.338Z,16.98
2018-11-11T12:56:37.486Z,17.02
2018-11-11T12:59:41.657Z,16.88
2018-11-11T13:02:45.814Z,16.67
2018-11-11T13:05:49.954Z,16.62
2018-11-11T13:08:54.102Z,16.61
2018-11-11T13:11:58.322Z,16.53
2018-11-11T13:15:02.419Z,16.45
2018-11-11T13:18:06.917Z,16.31
2018-11-11T13:21:11.049Z,16.15
2018-11-11T13:24:15.302Z,16.17
2018-11-11T13:27:19.509Z,16.07
2018-11-11T13:30:23.656Z,16.01
2018-11-11T13:33:27.794Z,15.97
2018-11-11T13:36:31.921Z,15.91
2018-11-11T13:39:36.175Z,15.91
2018-11-11T13:42:40.359Z,15.89
2018-11-11T13:45:44.495Z,15.88
2018-11-11T13:48:48.634Z,15.89
2018-11-11T13:51:52.816Z,15.85
2018-11-11T13:54:56.914Z,15.80
2018-11-11T13:58:01.054Z,15.81
2018-11-11T14:01:05.222Z,15.79
2018-11-11T14:04:09.363Z,15.82
2018-11-11T14:07:13.486Z,15.83
2018-11-11T14:10:17.914Z,15.80
2018-11-11T14:13:22.068Z,15.80
2018-11-11T14:16:26.189Z,15.81
2018-11-11T14:19:30.405Z,15.81
2018-11-11T14:22:34.447Z,15.85
2018-11-11T14:25:38.618Z,15.88
2018-11-11T14:28:42.735Z,15.90
2018-11-11T14:31:46.834Z,15.80
2018-11-11T14:34:50.997Z,15.80
2018-11-11T14:37:55.134Z,15.83
2018-11-11T14:40:59.273Z,15.86
2018-11-11T14:44:03.482Z,15.96
2018-11-11T14:47:07.638Z,15.96
2018-11-11T14:50:13.133Z,15.89
2018-11-11T14:53:17.194Z,15.82
2018-11-11T14:56:21.318Z,15.72
2018-11-11T14:59:25.458Z,15.58
2018-11-11T15:02:29.576Z,15.54
2018-11-11T15:05:33.813Z,15.49
2018-11-11T15:08:37.935Z,15.42
2018-11-11T15:11:42.290Z,15.35
2018-11-11T15:14:46.471Z,15.24
2018-11-11T15:17:51.239Z,15.17
2018-11-11T15:20:55.523Z,15.08
2018-11-11T15:23:59.496Z,15.02
2018-11-11T15:27:03.632Z,14.89
2018-11-11T15:30:11.675Z,14.82
2018-11-11T15:33:15.792Z,14.72
2018-11-11T15:36:19.932Z,14.72
2018-11-11T15:39:24.062Z,14.66
2018-11-11T15:42:28.289Z,14.53
2018-11-11T15:45:33.409Z,14.39
2018-11-11T15:48:37.656Z,14.34
2018-11-11T15:51:41.750Z,14.30
2018-11-11T15:54:45.991Z,14.29
2018-11-11T15:57:50.186Z,14.25
2018-11-11T16:00:54.329Z,14.21
2018-11-11T16:03:58.455Z,14.12
2018-11-11T16:07:02.591Z,14.09
2018-11-11T16:10:08.282Z,14.07
2018-11-11T16:13:12.409Z,14.07
2018-11-11T16:16:16.543Z,14.00
2018-11-11T16:19:20.670Z,13.88
2018-11-11T16:22:24.904Z,13.83
2018-11-11T16:25:29.161Z,13.77
2018-11-11T16:28:33.275Z,13.67
2018-11-11T16:31:37.400Z,13.54
2018-11-11T16:34:41.538Z,13.49
2018-11-11T16:37:45.751Z,13.40
2018-11-11T16:40:50.039Z,13.41
2018-11-11T16:43:54.187Z,13.18
2018-11-11T16:46:58.302Z,13.10
2018-11-11T16:50:02.621Z,13.02
2018-11-11T16:53:08.250Z,13.05
2018-11-11T16:56:12.266Z,12.96
2018-11-11T16:59:16.452Z,12.83
2018-11-11T17:02:20.618Z,12.58
2018-11-11T17:05:26.102Z,12.41
2018-11-11T17:08:30.255Z,12.27
2018-11-11T17:11:34.411Z,12.12
2018-11-11T17:14:38.547Z,11.99
2018-11-11T17:17:42.826Z,11.91
2018-11-11T17:20:47.010Z,11.79
2018-11-11T17:23:51.120Z,11.68
2018-11-11T17:26:55.293Z,11.59
2018-11-11T17:29:59.546Z,11.59
2018-11-11T17:33:03.700Z,11.59
2018-11-11T17:36:07.876Z,11.55
2018-11-11T17:39:12.473Z,11.51
2018-11-11T17:42:16.531Z,11.49
2018-11-11T17:45:20.918Z,11.50
2018-11-11T17:48:25.089Z,11.59
2018-11-11T17:51:29.218Z,11.65
2018-11-11T17:54:33.382Z,11.81
2018-11-11T17:57:37.514Z,12.17
2018-11-11T18:00:41.672Z,12.32
2018-11-11T18:03:45.789Z,12.46
2018-11-11T18:06:49.911Z,12.63
2018-11-11T18:09:54.044Z,12.70
2018-11-11T18:12:58.226Z,12.74
2018-11-11T18:16:02.354Z,12.84
2018-11-11T18:19:06.498Z,12.87
2018-11-11T18:22:10.621Z,12.92
2018-11-11T18:25:14.760Z,12.98
2018-11-11T18:28:18.970Z,12.99
2018-11-11T18:31:23.015Z,13.09
2018-11-11T18:34:27.246Z,13.10
2018-11-11T18:37:31.343Z,13.09
2018-11-11T18:40:35.500Z,13.18
2018-11-11T18:43:39.646Z,13.20
2018-11-11T18:46:43.782Z,13.22
2018-11-11T18:49:47.930Z,13.31
2018-11-11T18:52:52.086Z,13.34
2018-11-11T18:55:56.269Z,13.30
2018-11-11T18:59:00.472Z,13.33
2018-11-11T19:02:04.700Z,13.32
2018-11-11T19:05:11.308Z,13.30
2018-11-11T19:08:15.450Z,13.26
2018-11-11T19:11:19.608Z,13.19
2018-11-11T19:14:23.754Z,13.25
2018-11-11T19:17:27.891Z,13.27
2018-11-11T19:20:32.038Z,13.27
2018-11-11T19:23:41.455Z,13.32
2018-11-11T19:26:45.642Z,13.28
2018-11-11T19:29:53.571Z,13.28
2018-11-11T19:32:57.702Z,13.23
2018-11-11T19:36:01.823Z,13.23
2018-11-11T19:39:13.141Z,13.26
2018-11-11T19:42:17.269Z,13.26
2018-11-11T19:45:22.740Z,13.29
2018-11-11T19:51:41.569Z,13.24
2018-11-11T19:54:45.689Z,13.19
2018-11-11T19:57:49.751Z,13.07
2018-11-11T20:00:54.624Z,13.06
2018-11-11T20:03:58.759Z,13.07
2018-11-11T20:07:02.879Z,13.00
2018-11-11T20:10:11.443Z,13.17
2018-11-11T20:13:15.566Z,13.32
2018-11-11T20:16:19.681Z,13.39
2018-11-11T20:19:25.306Z,13.48
2018-11-11T20:22:29.439Z,13.50
2018-11-11T20:25:33.665Z,13.54
2018-11-11T20:28:37.785Z,13.51
2018-11-11T20:31:41.977Z,13.50
2018-11-11T20:34:46.059Z,13.49
2018-11-11T20:37:50.208Z,13.55
2018-11-11T20:40:54.640Z,13.55
2018-11-11T20:43:59.186Z,13.53
2018-11-11T20:47:03.411Z,13.51
2018-11-11T20:50:11.129Z,13.52
2018-11-11T20:53:15.430Z,13.44
2018-11-11T20:59:42.932Z,13.46
2018-11-11T21:02:48.560Z,13.50
2018-11-11T21:05:53.691Z,13.49
2018-11-11T21:12:41.318Z,13.54
2018-11-11T21:15:46.830Z,13.56
2018-11-11T21:18:51.298Z,13.59
2018-11-11T21:21:55.670Z,13.61
2018-11-11T21:25:00.310Z,13.64
2018-11-11T21:28:06.248Z,13.59
2018-11-11T21:31:10.829Z,13.50
2018-11-11T21:34:15.819Z,13.27
2018-11-11T21:37:21.828Z,13.13
2018-11-11T21:40:27.023Z,12.94
2018-11-11T21:43:31.259Z,12.80
2018-11-11T21:46:36.056Z,12.59
2018-11-11T21:49:40.324Z,12.51
2018-11-11T21:52:46.381Z,12.49
2018-11-11T21:55:50.623Z,12.52
2018-11-11T21:58:54.755Z,12.49
2018-11-11T22:01:58.901Z,12.60
2018-11-11T22:05:03.022Z,12.68
2018-11-11T22:08:07.151Z,12.53
2018-11-11T22:11:11.274Z,12.51
2018-11-11T22:14:15.411Z,12.49
2018-11-11T22:17:19.542Z,12.49
2018-11-11T22:20:23.660Z,12.54
2018-11-11T22:23:27.890Z,12.51
2018-11-11T22:26:32.012Z,12.46
2018-11-11T22:29:36.128Z,12.40
2018-11-11T22:32:40.568Z,12.29
2018-11-11T22:35:44.690Z,12.19
2018-11-11T22:38:48.838Z,12.09
2018-11-11T22:41:52.973Z,12.02
2018-11-11T22:44:57.106Z,11.95
2018-11-11T22:48:01.235Z,11.94
2018-11-11T22:51:05.395Z,11.95
2018-11-11T22:54:09.538Z,11.91
2018-11-11T22:57:13.666Z,11.84
2018-11-11T23:00:23.073Z,11.76
2018-11-11T23:03:27.199Z,11.70
2018-11-11T23:06:31.318Z,11.63
2018-11-11T23:09:35.479Z,11.51
2018-11-11T23:12:39.911Z,11.39
2018-11-11T23:15:44.037Z,11.36
2018-11-11T23:18:48.168Z,11.36
2018-11-11T23:21:52.298Z,11.39
2018-11-11T23:24:56.459Z,11.30
2018-11-11T23:28:00.598Z,11.36
2018-11-11T23:31:04.799Z,11.33
2018-11-11T23:34:08.934Z,11.41
2018-11-11T23:37:13.063Z,11.46
2018-11-11T23:40:18.247Z,11.53
2018-11-11T23:43:22.330Z,11.67
2018-11-11T23:46:26.462Z,11.75
2018-11-11T23:49:30.622Z,12.03
2018-11-11T23:52:34.754Z,12.16
2018-11-11T23:55:38.902Z,12.17
2018-11-11T23:58:43.042Z,12.19
